Startpagina
METAR-TAF:

METAR-TAF

Vliegvelden :

Albert, Frankrijk

breedte: 49-58-21N, lengte: 002-41-29E, hoogte: 111 m

Actueel weer

Dit bericht is 16 minuten geleden gemaakt, om 05:30 UTC
Wind 8 kt uit het noordoosten
Temperatuur -1°C
Vochtigheid 86%
Druk 1025 hPa
Zicht: 9000 m

METAR: LFAQ 070530Z AUTO 04008KT 9000 NSC M01/M03 Q1025

Tijdstip: 06:46 (05:46 UTC)

Verwachting

Dit bericht is 46 minuten geleden gemaakt, om 05:00 UTC
Verwachting geldig van 07 om 06 UTC tot 07 om 15 UTC
Wind 7 kt uit het noordoosten
Zicht 10 km of meer
geen wolken onder 1500 m en geen cumulonimbus

TAF: LFAQ 070500Z 0706/0715 04007KT CAVOK

Waarnemingen en weersverwachtingen van meer dan 4000 vliegvelden (METAR en TAF).

De beschikbare stations zijn de gele en rode punten op de kaart.

Ga met uw muis naar het station om de naam te zien.

Klik dan om waarnemingen en weersverwachtingen te zien.

kaart wijzigen: klik op de groene knoppen met een zwart kruis om in te zoomen, op de groene knop met een streepje om uit te zoomen of op de groene pijlen voor aangrenzende kaarten.


METAR-TAF: